PIL weather

Port Isabel Cameron County Airport
Port Isabel, Texas, United States

Public forecast

Using degrees Fahrenheit for public forecast. Weather courtesy of forecast.io.

Current aviation weather report (METAR) for Port Isabel Cameron County Airport

Retrieved 2020/06/02 23:53 UTC (22 minutes ago):

KPIL 022353Z AUTO 09010KT 10SM FEW018 29/24 A2995 RMK AO2 SLP141 T02890239 10306 20289 55004

Closest aviation forecast (TAF) to Port Isabel Cameron County Airport

Closest forecast is Brownsville South Padre Island International Airport, 16.2 nm (29.9 km) SSW. Retrieved 2020-06-03 00:22 UTC (0 seconds ago):

TAF KBRO 022320Z 0300/0324 09014KT P6SM FEW025 FEW045 BKN080 FM030300 09005KT P6SM BKN100 FM031200 06005KT P6SM SCT015 BKN030 FM031800 07008KT P6SM VCSH SCT025 BKN050 PROB30 0318/0324 4SM TSRA OVC025CB